sensor_id;sensor_type;location;lat;lon;timestamp;P1;durP1;ratioP1;P2;durP2;ratioP2
10603;SDS011;5349;41.554;23.274;2023-04-03T00:00:08;2.30;;;1.70;;
10603;SDS011;5349;41.554;23.274;2023-04-03T00:02:36;3.72;;;2.00;;
10603;SDS011;5349;41.554;23.274;2023-04-03T00:05:03;11.38;;;7.80;;
10603;SDS011;5349;41.554;23.274;2023-04-03T00:07:32;10.40;;;3.90;;
10603;SDS011;5349;41.554;23.274;2023-04-03T00:09:59;5.43;;;3.00;;
10603;SDS011;5349;41.554;23.274;2023-04-03T00:12:25;4.38;;;2.90;;
10603;SDS011;5349;41.554;23.274;2023-04-03T00:14:52;5.00;;;2.50;;
10603;SDS011;5349;41.554;23.274;2023-04-03T00:17:19;4.43;;;2.43;;
10603;SDS011;5349;41.554;23.274;2023-04-03T00:19:46;10.17;;;2.50;;
10603;SDS011;5349;41.554;23.274;2023-04-03T00:22:13;2.95;;;1.80;;
10603;SDS011;5349;41.554;23.274;2023-04-03T00:24:41;3.97;;;2.33;;
10603;SDS011;5349;41.554;23.274;2023-04-03T00:27:08;2.33;;;1.60;;
10603;SDS011;5349;41.554;23.274;2023-04-03T00:29:36;2.43;;;1.73;;
10603;SDS011;5349;41.554;23.274;2023-04-03T00:32:03;3.60;;;1.77;;
10603;SDS011;5349;41.554;23.274;2023-04-03T00:34:29;2.33;;;1.80;;
10603;SDS011;5349;41.554;23.274;2023-04-03T00:36:57;2.60;;;1.70;;
10603;SDS011;5349;41.554;23.274;2023-04-03T00:39:24;2.40;;;1.90;;
10603;SDS011;5349;41.554;23.274;2023-04-03T00:41:52;2.50;;;1.70;;
10603;SDS011;5349;41.554;23.274;2023-04-03T00:44:20;3.13;;;1.90;;
10603;SDS011;5349;41.554;23.274;2023-04-03T00:46:47;2.17;;;1.63;;
10603;SDS011;5349;41.554;23.274;2023-04-03T00:49:14;1.90;;;1.53;;
10603;SDS011;5349;41.554;23.274;2023-04-03T00:51:41;2.50;;;1.70;;
10603;SDS011;5349;41.554;23.274;2023-04-03T00:54:08;3.90;;;1.60;;
10603;SDS011;5349;41.554;23.274;2023-04-03T00:56:35;1.90;;;1.70;;
10603;SDS011;5349;41.554;23.274;2023-04-03T00:59:05;3.43;;;1.90;;
10603;SDS011;5349;41.554;23.274;2023-04-03T01:01:34;2.97;;;1.90;;
10603;SDS011;5349;41.554;23.274;2023-04-03T01:04:02;1.90;;;1.70;;
10603;SDS011;5349;41.554;23.274;2023-04-03T01:06:32;16.27;;;8.57;;
10603;SDS011;5349;41.554;23.274;2023-04-03T01:09:02;19.77;;;10.20;;
10603;SDS011;5349;41.554;23.274;2023-04-03T01:11:30;27.97;;;14.07;;
10603;SDS011;5349;41.554;23.274;2023-04-03T01:13:58;18.17;;;10.80;;
10603;SDS011;5349;41.554;23.274;2023-04-03T01:16:28;14.50;;;9.67;;
10603;SDS011;5349;41.554;23.274;2023-04-03T01:18:56;9.47;;;5.60;;
10603;SDS011;5349;41.554;23.274;2023-04-03T01:24:34;5.37;;;3.90;;
10603;SDS011;5349;41.554;23.274;2023-04-03T01:27:04;4.03;;;3.43;;
10603;SDS011;5349;41.554;23.274;2023-04-03T01:29:33;3.83;;;3.23;;
10603;SDS011;5349;41.554;23.274;2023-04-03T01:32:01;3.20;;;2.53;;
10603;SDS011;5349;41.554;23.274;2023-04-03T01:34:29;3.03;;;2.73;;
10603;SDS011;5349;41.554;23.274;2023-04-03T01:36:57;4.20;;;3.10;;
10603;SDS011;5349;41.554;23.274;2023-04-03T01:39:23;6.00;;;4.10;;
10603;SDS011;5349;41.554;23.274;2023-04-03T01:41:50;9.23;;;4.00;;
10603;SDS011;5349;41.554;23.274;2023-04-03T01:44:17;7.67;;;4.07;;
10603;SDS011;5349;41.554;23.274;2023-04-03T01:46:44;6.00;;;3.70;;
10603;SDS011;5349;41.554;23.274;2023-04-03T01:49:12;3.73;;;3.37;;
10603;SDS011;5349;41.554;23.274;2023-04-03T01:51:39;6.17;;;3.93;;
10603;SDS011;5349;41.554;23.274;2023-04-03T01:54:06;5.70;;;4.10;;
10603;SDS011;5349;41.554;23.274;2023-04-03T01:56:33;4.73;;;4.00;;
10603;SDS011;5349;41.554;23.274;2023-04-03T01:59:00;5.13;;;3.83;;
10603;SDS011;5349;41.554;23.274;2023-04-03T02:01:26;4.70;;;3.70;;
10603;SDS011;5349;41.554;23.274;2023-04-03T02:03:53;4.70;;;3.73;;
10603;SDS011;5349;41.554;23.274;2023-04-03T02:06:21;10.47;;;6.60;;
10603;SDS011;5349;41.554;23.274;2023-04-03T02:08:48;15.57;;;10.90;;
10603;SDS011;5349;41.554;23.274;2023-04-03T02:11:15;5.60;;;4.93;;
10603;SDS011;5349;41.554;23.274;2023-04-03T02:13:42;6.47;;;5.13;;
10603;SDS011;5349;41.554;23.274;2023-04-03T02:16:09;6.83;;;5.30;;
10603;SDS011;5349;41.554;23.274;2023-04-03T02:18:37;6.43;;;5.30;;
10603;SDS011;5349;41.554;23.274;2023-04-03T02:21:04;5.40;;;3.90;;
10603;SDS011;5349;41.554;23.274;2023-04-03T02:23:33;6.33;;;3.87;;
10603;SDS011;5349;41.554;23.274;2023-04-03T02:26:05;6.80;;;3.43;;
10603;SDS011;5349;41.554;23.274;2023-04-03T02:28:34;4.03;;;3.50;;
10603;SDS011;5349;41.554;23.274;2023-04-03T02:31:01;4.93;;;3.90;;
10603;SDS011;5349;41.554;23.274;2023-04-03T02:33:28;6.73;;;3.73;;
10603;SDS011;5349;41.554;23.274;2023-04-03T02:35:55;6.70;;;4.97;;
10603;SDS011;5349;41.554;23.274;2023-04-03T02:38:22;7.23;;;5.00;;
10603;SDS011;5349;41.554;23.274;2023-04-03T02:40:51;7.83;;;5.23;;
10603;SDS011;5349;41.554;23.274;2023-04-03T02:43:18;6.40;;;5.47;;
10603;SDS011;5349;41.554;23.274;2023-04-03T02:45:45;7.67;;;4.97;;
10603;SDS011;5349;41.554;23.274;2023-04-03T02:48:12;9.30;;;6.57;;
10603;SDS011;5349;41.554;23.274;2023-04-03T02:50:39;8.00;;;5.50;;
10603;SDS011;5349;41.554;23.274;2023-04-03T02:53:06;7.50;;;5.27;;
10603;SDS011;5349;41.554;23.274;2023-04-03T02:55:33;5.57;;;4.47;;
10603;SDS011;5349;41.554;23.274;2023-04-03T02:58:01;5.00;;;4.50;;
10603;SDS011;5349;41.554;23.274;2023-04-03T03:00:28;7.40;;;5.30;;
10603;SDS011;5349;41.554;23.274;2023-04-03T03:02:55;7.87;;;5.03;;
10603;SDS011;5349;41.554;23.274;2023-04-03T03:05:22;5.53;;;4.30;;
10603;SDS011;5349;41.554;23.274;2023-04-03T03:07:49;7.40;;;4.20;;
10603;SDS011;5349;41.554;23.274;2023-04-03T03:10:16;6.20;;;4.00;;
10603;SDS011;5349;41.554;23.274;2023-04-03T03:12:43;9.83;;;4.40;;
10603;SDS011;5349;41.554;23.274;2023-04-03T03:15:11;5.50;;;4.60;;
10603;SDS011;5349;41.554;23.274;2023-04-03T03:17:38;6.30;;;4.23;;
10603;SDS011;5349;41.554;23.274;2023-04-03T03:20:05;7.77;;;4.00;;
10603;SDS011;5349;41.554;23.274;2023-04-03T03:22:34;6.43;;;3.60;;
10603;SDS011;5349;41.554;23.274;2023-04-03T03:25:01;4.20;;;3.67;;
10603;SDS011;5349;41.554;23.274;2023-04-03T03:27:28;5.37;;;3.87;;
10603;SDS011;5349;41.554;23.274;2023-04-03T03:29:55;4.93;;;3.70;;
10603;SDS011;5349;41.554;23.274;2023-04-03T03:32:23;5.57;;;3.83;;
10603;SDS011;5349;41.554;23.274;2023-04-03T03:34:50;9.37;;;4.30;;
10603;SDS011;5349;41.554;23.274;2023-04-03T03:37:17;6.83;;;3.83;;
10603;SDS011;5349;41.554;23.274;2023-04-03T03:39:44;4.77;;;3.63;;
10603;SDS011;5349;41.554;23.274;2023-04-03T03:42:11;7.77;;;4.40;;
10603;SDS011;5349;41.554;23.274;2023-04-03T03:44:37;5.40;;;4.20;;
10603;SDS011;5349;41.554;23.274;2023-04-03T03:47:04;7.00;;;4.87;;
10603;SDS011;5349;41.554;23.274;2023-04-03T03:49:33;5.33;;;4.23;;
10603;SDS011;5349;41.554;23.274;2023-04-03T03:52:00;20.77;;;8.70;;
10603;SDS011;5349;41.554;23.274;2023-04-03T03:54:27;9.17;;;6.20;;
10603;SDS011;5349;41.554;23.274;2023-04-03T03:56:53;6.87;;;5.60;;
10603;SDS011;5349;41.554;23.274;2023-04-03T03:59:20;10.50;;;4.90;;
10603;SDS011;5349;41.554;23.274;2023-04-03T04:01:47;9.37;;;4.37;;
10603;SDS011;5349;41.554;23.274;2023-04-03T04:04:14;6.03;;;4.40;;
10603;SDS011;5349;41.554;23.274;2023-04-03T04:06:42;5.77;;;3.20;;
10603;SDS011;5349;41.554;23.274;2023-04-03T04:09:09;5.77;;;3.47;;
10603;SDS011;5349;41.554;23.274;2023-04-03T04:11:36;8.90;;;4.13;;
10603;SDS011;5349;41.554;23.274;2023-04-03T04:14:04;11.97;;;5.00;;
10603;SDS011;5349;41.554;23.274;2023-04-03T04:16:31;11.90;;;7.03;;
10603;SDS011;5349;41.554;23.274;2023-04-03T04:18:58;10.23;;;8.33;;
10603;SDS011;5349;41.554;23.274;2023-04-03T04:21:25;9.03;;;4.27;;
10603;SDS011;5349;41.554;23.274;2023-04-03T04:23:53;11.57;;;4.87;;
10603;SDS011;5349;41.554;23.274;2023-04-03T04:26:20;10.63;;;5.90;;
10603;SDS011;5349;41.554;23.274;2023-04-03T04:28:47;16.83;;;9.40;;
10603;SDS011;5349;41.554;23.274;2023-04-03T04:31:13;18.30;;;12.77;;
10603;SDS011;5349;41.554;23.274;2023-04-03T04:33:40;27.17;;;12.97;;
10603;SDS011;5349;41.554;23.274;2023-04-03T04:36:07;20.33;;;13.23;;
10603;SDS011;5349;41.554;23.274;2023-04-03T04:38:34;19.77;;;12.37;;
10603;SDS011;5349;41.554;23.274;2023-04-03T04:41:02;21.20;;;16.77;;
10603;SDS011;5349;41.554;23.274;2023-04-03T04:43:29;16.47;;;12.77;;
10603;SDS011;5349;41.554;23.274;2023-04-03T04:46:02;20.97;;;13.60;;
10603;SDS011;5349;41.554;23.274;2023-04-03T04:48:30;35.60;;;22.87;;
10603;SDS011;5349;41.554;23.274;2023-04-03T04:50:57;39.17;;;25.70;;
10603;SDS011;5349;41.554;23.274;2023-04-03T04:53:24;38.40;;;18.13;;
10603;SDS011;5349;41.554;23.274;2023-04-03T04:55:51;25.93;;;16.80;;
10603;SDS011;5349;41.554;23.274;2023-04-03T04:58:19;29.93;;;17.97;;
10603;SDS011;5349;41.554;23.274;2023-04-03T05:00:46;30.07;;;15.70;;
10603;SDS011;5349;41.554;23.274;2023-04-03T05:03:13;26.73;;;14.10;;
10603;SDS011;5349;41.554;23.274;2023-04-03T05:05:40;10.97;;;7.97;;
10603;SDS011;5349;41.554;23.274;2023-04-03T05:08:07;7.57;;;5.90;;
10603;SDS011;5349;41.554;23.274;2023-04-03T05:10:34;10.70;;;6.83;;
10603;SDS011;5349;41.554;23.274;2023-04-03T05:13:01;12.37;;;7.40;;
10603;SDS011;5349;41.554;23.274;2023-04-03T05:15:29;14.00;;;8.47;;
10603;SDS011;5349;41.554;23.274;2023-04-03T05:17:56;10.73;;;8.17;;
10603;SDS011;5349;41.554;23.274;2023-04-03T05:20:23;12.97;;;9.73;;
10603;SDS011;5349;41.554;23.274;2023-04-03T05:22:49;9.80;;;6.83;;
10603;SDS011;5349;41.554;23.274;2023-04-03T05:25:16;20.10;;;9.70;;
10603;SDS011;5349;41.554;23.274;2023-04-03T05:27:43;16.67;;;8.70;;
10603;SDS011;5349;41.554;23.274;2023-04-03T05:30:10;12.07;;;7.43;;
10603;SDS011;5349;41.554;23.274;2023-04-03T05:32:39;12.40;;;7.00;;
10603;SDS011;5349;41.554;23.274;2023-04-03T05:35:07;10.53;;;6.37;;
10603;SDS011;5349;41.554;23.274;2023-04-03T05:37:35;15.53;;;10.47;;
10603;SDS011;5349;41.554;23.274;2023-04-03T05:40:03;14.20;;;7.43;;
10603;SDS011;5349;41.554;23.274;2023-04-03T05:42:30;13.10;;;9.63;;
10603;SDS011;5349;41.554;23.274;2023-04-03T05:44:57;9.73;;;5.50;;
10603;SDS011;5349;41.554;23.274;2023-04-03T05:47:24;8.63;;;6.47;;
10603;SDS011;5349;41.554;23.274;2023-04-03T05:49:52;19.60;;;13.50;;
10603;SDS011;5349;41.554;23.274;2023-04-03T05:52:20;30.77;;;22.03;;
10603;SDS011;5349;41.554;23.274;2023-04-03T05:54:50;57.30;;;33.20;;
10603;SDS011;5349;41.554;23.274;2023-04-03T05:57:16;67.20;;;43.37;;
10603;SDS011;5349;41.554;23.274;2023-04-03T05:59:44;66.10;;;54.47;;
10603;SDS011;5349;41.554;23.274;2023-04-03T06:02:12;71.00;;;57.53;;
10603;SDS011;5349;41.554;23.274;2023-04-03T06:04:39;88.27;;;74.83;;
10603;SDS011;5349;41.554;23.274;2023-04-03T06:07:09;86.07;;;75.10;;
10603;SDS011;5349;41.554;23.274;2023-04-03T06:09:37;92.27;;;78.03;;
10603;SDS011;5349;41.554;23.274;2023-04-03T06:12:04;77.23;;;64.07;;
10603;SDS011;5349;41.554;23.274;2023-04-03T06:14:31;78.28;;;60.30;;
10603;SDS011;5349;41.554;23.274;2023-04-03T06:16:58;75.20;;;58.90;;
10603;SDS011;5349;41.554;23.274;2023-04-03T06:19:25;60.70;;;50.17;;
10603;SDS011;5349;41.554;23.274;2023-04-03T06:21:52;64.80;;;50.60;;
10603;SDS011;5349;41.554;23.274;2023-04-03T06:24:20;73.07;;;59.17;;
10603;SDS011;5349;41.554;23.274;2023-04-03T06:26:49;65.73;;;50.20;;
10603;SDS011;5349;41.554;23.274;2023-04-03T06:29:17;57.87;;;43.20;;
10603;SDS011;5349;41.554;23.274;2023-04-03T06:31:45;33.80;;;26.50;;
10603;SDS011;5349;41.554;23.274;2023-04-03T06:34:12;37.17;;;25.63;;
10603;SDS011;5349;41.554;23.274;2023-04-03T06:36:39;27.07;;;18.30;;
10603;SDS011;5349;41.554;23.274;2023-04-03T06:39:06;14.70;;;9.13;;
10603;SDS011;5349;41.554;23.274;2023-04-03T06:41:34;6.13;;;4.27;;
10603;SDS011;5349;41.554;23.274;2023-04-03T06:44:01;6.97;;;3.67;;
10603;SDS011;5349;41.554;23.274;2023-04-03T06:46:28;5.67;;;3.10;;
10603;SDS011;5349;41.554;23.274;2023-04-03T06:48:55;6.22;;;3.60;;
10603;SDS011;5349;41.554;23.274;2023-04-03T06:51:22;7.67;;;3.63;;
10603;SDS011;5349;41.554;23.274;2023-04-03T06:53:51;7.00;;;3.60;;
10603;SDS011;5349;41.554;23.274;2023-04-03T06:56:19;7.25;;;3.50;;
10603;SDS011;5349;41.554;23.274;2023-04-03T06:58:48;5.55;;;3.40;;
10603;SDS011;5349;41.554;23.274;2023-04-03T07:01:16;6.75;;;3.92;;
10603;SDS011;5349;41.554;23.274;2023-04-03T07:03:45;8.10;;;4.80;;
10603;SDS011;5349;41.554;23.274;2023-04-03T07:06:13;6.63;;;4.13;;
10603;SDS011;5349;41.554;23.274;2023-04-03T07:08:41;4.90;;;4.05;;
10603;SDS011;5349;41.554;23.274;2023-04-03T07:11:08;7.75;;;3.80;;
10603;SDS011;5349;41.554;23.274;2023-04-03T07:13:36;11.17;;;5.83;;
10603;SDS011;5349;41.554;23.274;2023-04-03T07:16:05;12.20;;;4.97;;
10603;SDS011;5349;41.554;23.274;2023-04-03T07:18:33;8.45;;;4.78;;
10603;SDS011;5349;41.554;23.274;2023-04-03T07:21:00;9.77;;;5.57;;
10603;SDS011;5349;41.554;23.274;2023-04-03T07:23:28;10.25;;;5.63;;
10603;SDS011;5349;41.554;23.274;2023-04-03T07:25:54;8.20;;;4.78;;
10603;SDS011;5349;41.554;23.274;2023-04-03T07:28:21;8.20;;;5.30;;
10603;SDS011;5349;41.554;23.274;2023-04-03T07:30:50;9.65;;;4.75;;
10603;SDS011;5349;41.554;23.274;2023-04-03T07:33:20;6.07;;;3.50;;
10603;SDS011;5349;41.554;23.274;2023-04-03T07:35:50;8.82;;;4.78;;
10603;SDS011;5349;41.554;23.274;2023-04-03T07:38:17;10.90;;;3.90;;
10603;SDS011;5349;41.554;23.274;2023-04-03T07:40:45;6.05;;;4.00;;
10603;SDS011;5349;41.554;23.274;2023-04-03T07:43:13;8.73;;;3.90;;
10603;SDS011;5349;41.554;23.274;2023-04-03T07:45:41;6.10;;;3.97;;
10603;SDS011;5349;41.554;23.274;2023-04-03T07:48:08;6.13;;;3.47;;
10603;SDS011;5349;41.554;23.274;2023-04-03T07:50:36;5.90;;;4.30;;
10603;SDS011;5349;41.554;23.274;2023-04-03T07:53:05;11.20;;;6.30;;
10603;SDS011;5349;41.554;23.274;2023-04-03T07:55:32;6.45;;;4.88;;
10603;SDS011;5349;41.554;23.274;2023-04-03T07:58:02;9.13;;;4.50;;
10603;SDS011;5349;41.554;23.274;2023-04-03T08:00:29;9.57;;;5.77;;
10603;SDS011;5349;41.554;23.274;2023-04-03T08:02:56;9.68;;;5.75;;
10603;SDS011;5349;41.554;23.274;2023-04-03T08:05:23;10.55;;;5.43;;
10603;SDS011;5349;41.554;23.274;2023-04-03T08:07:51;11.32;;;7.93;;
10603;SDS011;5349;41.554;23.274;2023-04-03T08:10:18;11.25;;;7.43;;
10603;SDS011;5349;41.554;23.274;2023-04-03T08:12:45;16.92;;;8.90;;
10603;SDS011;5349;41.554;23.274;2023-04-03T08:15:12;13.98;;;8.95;;
10603;SDS011;5349;41.554;23.274;2023-04-03T08:17:39;12.07;;;8.10;;
10603;SDS011;5349;41.554;23.274;2023-04-03T08:20:07;9.00;;;6.30;;
10603;SDS011;5349;41.554;23.274;2023-04-03T08:22:36;8.50;;;5.32;;
10603;SDS011;5349;41.554;23.274;2023-04-03T08:25:04;9.90;;;6.35;;
10603;SDS011;5349;41.554;23.274;2023-04-03T08:27:32;25.70;;;13.93;;
10603;SDS011;5349;41.554;23.274;2023-04-03T08:29:59;10.30;;;5.93;;
10603;SDS011;5349;41.554;23.274;2023-04-03T08:32:26;6.55;;;4.70;;
10603;SDS011;5349;41.554;23.274;2023-04-03T08:34:53;9.38;;;5.13;;
10603;SDS011;5349;41.554;23.274;2023-04-03T08:37:20;5.85;;;4.50;;
10603;SDS011;5349;41.554;23.274;2023-04-03T08:39:47;8.85;;;5.10;;
10603;SDS011;5349;41.554;23.274;2023-04-03T08:42:16;6.35;;;3.63;;
10603;SDS011;5349;41.554;23.274;2023-04-03T08:44:52;8.32;;;4.35;;
10603;SDS011;5349;41.554;23.274;2023-04-03T08:47:27;11.13;;;7.90;;
10603;SDS011;5349;41.554;23.274;2023-04-03T08:50:04;7.82;;;4.72;;
10603;SDS011;5349;41.554;23.274;2023-04-03T08:52:34;11.25;;;5.65;;
10603;SDS011;5349;41.554;23.274;2023-04-03T08:55:05;10.27;;;5.60;;
10603;SDS011;5349;41.554;23.274;2023-04-03T08:57:43;9.90;;;6.03;;
10603;SDS011;5349;41.554;23.274;2023-04-03T09:00:15;11.52;;;8.00;;
10603;SDS011;5349;41.554;23.274;2023-04-03T09:02:44;18.83;;;13.73;;
10603;SDS011;5349;41.554;23.274;2023-04-03T09:05:13;18.20;;;13.07;;
10603;SDS011;5349;41.554;23.274;2023-04-03T09:07:42;13.68;;;10.77;;
10603;SDS011;5349;41.554;23.274;2023-04-03T09:10:11;17.13;;;12.30;;
10603;SDS011;5349;41.554;23.274;2023-04-03T09:12:41;15.85;;;12.10;;
10603;SDS011;5349;41.554;23.274;2023-04-03T09:15:15;24.02;;;19.50;;
10603;SDS011;5349;41.554;23.274;2023-04-03T09:17:47;19.63;;;14.63;;
10603;SDS011;5349;41.554;23.274;2023-04-03T09:20:24;16.75;;;10.50;;
10603;SDS011;5349;41.554;23.274;2023-04-03T09:22:59;13.38;;;8.40;;
10603;SDS011;5349;41.554;23.274;2023-04-03T09:25:27;15.18;;;9.77;;
10603;SDS011;5349;41.554;23.274;2023-04-03T09:27:59;19.42;;;14.40;;
10603;SDS011;5349;41.554;23.274;2023-04-03T09:30:26;22.20;;;17.10;;
10603;SDS011;5349;41.554;23.274;2023-04-03T09:32:54;18.70;;;14.77;;
10603;SDS011;5349;41.554;23.274;2023-04-03T09:35:23;20.17;;;17.05;;
10603;SDS011;5349;41.554;23.274;2023-04-03T09:37:52;33.00;;;19.92;;
10603;SDS011;5349;41.554;23.274;2023-04-03T09:40:34;26.45;;;17.45;;
10603;SDS011;5349;41.554;23.274;2023-04-03T09:45:48;17.27;;;13.80;;
10603;SDS011;5349;41.554;23.274;2023-04-03T09:48:17;13.48;;;11.15;;
10603;SDS011;5349;41.554;23.274;2023-04-03T09:50:55;14.40;;;12.63;;
10603;SDS011;5349;41.554;23.274;2023-04-03T09:53:28;14.77;;;12.93;;
10603;SDS011;5349;41.554;23.274;2023-04-03T09:56:00;16.60;;;12.80;;
10603;SDS011;5349;41.554;23.274;2023-04-03T09:58:37;12.75;;;11.45;;
10603;SDS011;5349;41.554;23.274;2023-04-03T10:01:20;11.80;;;10.27;;
10603;SDS011;5349;41.554;23.274;2023-04-03T10:04:04;13.27;;;9.98;;
10603;SDS011;5349;41.554;23.274;2023-04-03T10:06:37;13.13;;;9.75;;
10603;SDS011;5349;41.554;23.274;2023-04-03T10:09:06;36.97;;;25.60;;
10603;SDS011;5349;41.554;23.274;2023-04-03T10:11:57;15.25;;;10.68;;
10603;SDS011;5349;41.554;23.274;2023-04-03T10:14:31;12.18;;;10.45;;
10603;SDS011;5349;41.554;23.274;2023-04-03T10:17:01;12.68;;;10.38;;
10603;SDS011;5349;41.554;23.274;2023-04-03T10:19:38;23.65;;;19.42;;
10603;SDS011;5349;41.554;23.274;2023-04-03T10:22:13;15.45;;;11.50;;
10603;SDS011;5349;41.554;23.274;2023-04-03T10:24:51;14.63;;;11.68;;
10603;SDS011;5349;41.554;23.274;2023-04-03T10:27:27;18.33;;;12.57;;
10603;SDS011;5349;41.554;23.274;2023-04-03T10:30:07;15.70;;;11.15;;
10603;SDS011;5349;41.554;23.274;2023-04-03T10:32:50;14.40;;;11.57;;
10603;SDS011;5349;41.554;23.274;2023-04-03T10:35:31;14.68;;;12.00;;
10603;SDS011;5349;41.554;23.274;2023-04-03T10:38:07;15.45;;;11.85;;
10603;SDS011;5349;41.554;23.274;2023-04-03T10:40:43;16.83;;;13.00;;
10603;SDS011;5349;41.554;23.274;2023-04-03T10:43:19;17.40;;;13.15;;
10603;SDS011;5349;41.554;23.274;2023-04-03T10:45:55;22.83;;;15.00;;
10603;SDS011;5349;41.554;23.274;2023-04-03T10:48:30;16.15;;;12.00;;
10603;SDS011;5349;41.554;23.274;2023-04-03T10:51:08;18.48;;;11.02;;
10603;SDS011;5349;41.554;23.274;2023-04-03T10:53:44;15.68;;;10.45;;
10603;SDS011;5349;41.554;23.274;2023-04-03T10:56:18;14.05;;;12.02;;
10603;SDS011;5349;41.554;23.274;2023-04-03T10:58:52;18.40;;;14.50;;
10603;SDS011;5349;41.554;23.274;2023-04-03T11:01:24;18.13;;;13.40;;
10603;SDS011;5349;41.554;23.274;2023-04-03T11:03:57;13.77;;;11.18;;
10603;SDS011;5349;41.554;23.274;2023-04-03T11:06:30;18.25;;;14.25;;
10603;SDS011;5349;41.554;23.274;2023-04-03T11:09:04;16.58;;;13.57;;
10603;SDS011;5349;41.554;23.274;2023-04-03T11:11:37;17.02;;;13.50;;
10603;SDS011;5349;41.554;23.274;2023-04-03T11:14:09;18.58;;;12.90;;
10603;SDS011;5349;41.554;23.274;2023-04-03T11:16:43;20.10;;;14.13;;
10603;SDS011;5349;41.554;23.274;2023-04-03T11:19:14;22.63;;;13.20;;
10603;SDS011;5349;41.554;23.274;2023-04-03T11:21:50;18.13;;;14.10;;
10603;SDS011;5349;41.554;23.274;2023-04-03T11:24:22;15.47;;;12.17;;
10603;SDS011;5349;41.554;23.274;2023-04-03T11:26:51;14.73;;;11.73;;
10603;SDS011;5349;41.554;23.274;2023-04-03T11:29:21;14.07;;;11.30;;
10603;SDS011;5349;41.554;23.274;2023-04-03T11:32:01;14.95;;;12.32;;
10603;SDS011;5349;41.554;23.274;2023-04-03T11:34:39;15.40;;;11.45;;
10603;SDS011;5349;41.554;23.274;2023-04-03T11:37:12;12.43;;;9.98;;
10603;SDS011;5349;41.554;23.274;2023-04-03T11:39:47;13.20;;;10.77;;
10603;SDS011;5349;41.554;23.274;2023-04-03T11:42:24;12.80;;;10.23;;
10603;SDS011;5349;41.554;23.274;2023-04-03T11:47:59;15.70;;;11.90;;
10603;SDS011;5349;41.554;23.274;2023-04-03T11:50:41;12.27;;;10.67;;
10603;SDS011;5349;41.554;23.274;2023-04-03T11:56:01;14.93;;;11.23;;
10603;SDS011;5349;41.554;23.274;2023-04-03T11:58:42;10.53;;;9.23;;
10603;SDS011;5349;41.554;23.274;2023-04-03T12:01:45;12.00;;;9.50;;
10603;SDS011;5349;41.554;23.274;2023-04-03T12:04:15;13.70;;;9.30;;
10603;SDS011;5349;41.554;23.274;2023-04-03T12:06:52;16.07;;;10.77;;
10603;SDS011;5349;41.554;23.274;2023-04-03T12:09:29;9.60;;;8.33;;
10603;SDS011;5349;41.554;23.274;2023-04-03T12:12:00;7.23;;;5.40;;
10603;SDS011;5349;41.554;23.274;2023-04-03T12:14:47;8.40;;;7.40;;
10603;SDS011;5349;41.554;23.274;2023-04-03T12:17:18;8.93;;;6.77;;
10603;SDS011;5349;41.554;23.274;2023-04-03T12:19:50;10.67;;;8.10;;
10603;SDS011;5349;41.554;23.274;2023-04-03T12:22:17;15.10;;;12.97;;
10603;SDS011;5349;41.554;23.274;2023-04-03T12:24:46;9.93;;;8.40;;
10603;SDS011;5349;41.554;23.274;2023-04-03T12:27:23;9.63;;;7.93;;
10603;SDS011;5349;41.554;23.274;2023-04-03T12:29:54;8.83;;;7.37;;
10603;SDS011;5349;41.554;23.274;2023-04-03T12:32:32;10.90;;;8.10;;
10603;SDS011;5349;41.554;23.274;2023-04-03T12:35:13;8.43;;;6.83;;
10603;SDS011;5349;41.554;23.274;2023-04-03T12:38:15;13.10;;;7.60;;
10603;SDS011;5349;41.554;23.274;2023-04-03T12:40:57;9.67;;;6.37;;
10603;SDS011;5349;41.554;23.274;2023-04-03T12:43:38;9.47;;;7.07;;
10603;SDS011;5349;41.554;23.274;2023-04-03T12:46:17;9.32;;;7.40;;
10603;SDS011;5349;41.554;23.274;2023-04-03T12:48:49;9.33;;;7.53;;
10603;SDS011;5349;41.554;23.274;2023-04-03T12:51:21;10.13;;;7.20;;
10603;SDS011;5349;41.554;23.274;2023-04-03T12:53:56;11.45;;;8.50;;
10603;SDS011;5349;41.554;23.274;2023-04-03T12:56:28;9.00;;;7.60;;
10603;SDS011;5349;41.554;23.274;2023-04-03T12:58:56;9.90;;;8.37;;
10603;SDS011;5349;41.554;23.274;2023-04-03T13:01:41;10.27;;;9.13;;
10603;SDS011;5349;41.554;23.274;2023-04-03T13:04:09;31.17;;;19.87;;
10603;SDS011;5349;41.554;23.274;2023-04-03T13:06:41;37.97;;;26.80;;
10603;SDS011;5349;41.554;23.274;2023-04-03T13:09:18;16.00;;;11.82;;
10603;SDS011;5349;41.554;23.274;2023-04-03T13:11:48;12.10;;;9.07;;
10603;SDS011;5349;41.554;23.274;2023-04-03T13:14:17;18.73;;;12.23;;
10603;SDS011;5349;41.554;23.274;2023-04-03T13:16:52;8.93;;;7.90;;
10603;SDS011;5349;41.554;23.274;2023-04-03T13:19:20;12.13;;;8.77;;
10603;SDS011;5349;41.554;23.274;2023-04-03T13:21:50;10.53;;;7.43;;
10603;SDS011;5349;41.554;23.274;2023-04-03T13:24:20;13.97;;;10.80;;
10603;SDS011;5349;41.554;23.274;2023-04-03T13:26:47;14.33;;;10.20;;
10603;SDS011;5349;41.554;23.274;2023-04-03T13:29:19;21.80;;;17.13;;
10603;SDS011;5349;41.554;23.274;2023-04-03T13:31:52;24.23;;;18.50;;
10603;SDS011;5349;41.554;23.274;2023-04-03T13:34:21;18.58;;;16.42;;
10603;SDS011;5349;41.554;23.274;2023-04-03T13:36:57;22.20;;;17.25;;
10603;SDS011;5349;41.554;23.274;2023-04-03T13:39:25;19.58;;;16.35;;
10603;SDS011;5349;41.554;23.274;2023-04-03T13:41:54;15.60;;;13.10;;
10603;SDS011;5349;41.554;23.274;2023-04-03T13:44:27;12.60;;;9.83;;
10603;SDS011;5349;41.554;23.274;2023-04-03T13:47:00;19.73;;;14.52;;
10603;SDS011;5349;41.554;23.274;2023-04-03T13:49:40;13.33;;;11.20;;
10603;SDS011;5349;41.554;23.274;2023-04-03T13:52:22;12.95;;;9.48;;
10603;SDS011;5349;41.554;23.274;2023-04-03T13:54:53;11.07;;;9.33;;
10603;SDS011;5349;41.554;23.274;2023-04-03T13:57:22;15.50;;;10.93;;
10603;SDS011;5349;41.554;23.274;2023-04-03T13:59:50;22.52;;;17.13;;
10603;SDS011;5349;41.554;23.274;2023-04-03T14:02:18;21.77;;;15.90;;
10603;SDS011;5349;41.554;23.274;2023-04-03T14:04:49;15.73;;;12.07;;
10603;SDS011;5349;41.554;23.274;2023-04-03T14:07:23;9.77;;;7.22;;
10603;SDS011;5349;41.554;23.274;2023-04-03T14:09:51;12.68;;;9.90;;
10603;SDS011;5349;41.554;23.274;2023-04-03T14:12:19;15.30;;;10.15;;
10603;SDS011;5349;41.554;23.274;2023-04-03T14:14:52;16.30;;;12.83;;
10603;SDS011;5349;41.554;23.274;2023-04-03T14:17:22;16.87;;;14.13;;
10603;SDS011;5349;41.554;23.274;2023-04-03T14:19:51;18.90;;;14.67;;
10603;SDS011;5349;41.554;23.274;2023-04-03T14:22:20;20.88;;;15.38;;
10603;SDS011;5349;41.554;23.274;2023-04-03T14:24:51;21.70;;;16.27;;
10603;SDS011;5349;41.554;23.274;2023-04-03T14:27:19;19.13;;;17.10;;
10603;SDS011;5349;41.554;23.274;2023-04-03T14:29:48;25.58;;;22.70;;
10603;SDS011;5349;41.554;23.274;2023-04-03T14:32:18;28.70;;;24.88;;
10603;SDS011;5349;41.554;23.274;2023-04-03T14:34:47;34.20;;;28.90;;
10603;SDS011;5349;41.554;23.274;2023-04-03T14:37:16;40.47;;;32.93;;
10603;SDS011;5349;41.554;23.274;2023-04-03T14:39:44;31.63;;;25.83;;
10603;SDS011;5349;41.554;23.274;2023-04-03T14:42:14;31.23;;;26.73;;
10603;SDS011;5349;41.554;23.274;2023-04-03T14:46:47;29.45;;;25.23;;
10603;SDS011;5349;41.554;23.274;2023-04-03T14:49:14;27.73;;;22.70;;
10603;SDS011;5349;41.554;23.274;2023-04-03T14:51:44;28.85;;;23.77;;
10603;SDS011;5349;41.554;23.274;2023-04-03T14:54:13;39.13;;;30.98;;
10603;SDS011;5349;41.554;23.274;2023-04-03T14:56:41;35.33;;;30.85;;
10603;SDS011;5349;41.554;23.274;2023-04-03T14:59:09;40.60;;;31.57;;
10603;SDS011;5349;41.554;23.274;2023-04-03T15:01:38;33.10;;;26.07;;
10603;SDS011;5349;41.554;23.274;2023-04-03T15:04:08;31.38;;;24.58;;